PWSweather.com
Personal Weather Stations
Station Observations
KMIEASTT1
Tawas Bay, East Tawas, MI 48730

Tawas BayEast Tawas, MI 48730

Lat: 44.28, Lon: -83.48

Elevation: 600

Station Type: Davis VantagePro

http://www.tawasbayweather.com

High Low Average
Temperature 20.3°F-6.5°F -7.5°F-21.9°F 5.8°F-14.6°F
Dew Point 9.5°F-12.5°F -12.2°F-24.6°F -1.3°F-18.5°F
Winds 13.0 mph S20.9 mph S Calm Calm 4.5 mph 7.2 mph
Wind Gusts 20.0 mph32.2 mph -- 6.6 mph10.6 mph
Humidity 83% 54% 73%
Pressure 30.68 in1038.90 in 30.45 in1031.20 in -
Precipitation 0.00 in0.00 in - -
Hour Temp Dew Point Humidity Winds Wind Gusts Pressure Precip Precip Rate Daily Precip Total
12:00 AM 0.8°F-17.3°C -7.3°F-21.8°C 68% 2.0 mph NW3.2 kmh NW 2.0 mph3.2 kmh 30.45 in1031.2 mb 0.00 in0.0 mm 0.00 in/hr0.0 mm/hr 0.00 in0.0 mm
12:15 AM 0.5°F-17.5°C -7.6°F-22.0°C 68% 1.0 mph WNW1.6 kmh WNW 2.0 mph3.2 kmh 30.45 in1031.2 mb 0.00 in0.0 mm 0.00 in/hr0.0 mm/hr 0.00 in0.0 mm
12:30 AM 0.1°F-17.7°C -7.9°F-22.2°C 68% Calm Calm 2.0 mph3.2 kmh 30.46 in1031.5 mb 0.00 in0.0 mm 0.00 in/hr0.0 mm/hr 0.00 in0.0 mm
12:45 AM -0.3°F-17.9°C -7.7°F-22.1°C 70% Calm Calm 3.0 mph4.8 kmh 30.46 in1031.5 mb 0.00 in0.0 mm 0.00 in/hr0.0 mm/hr 0.00 in0.0 mm
01:00 AM -0.7°F-18.2°C -8.1°F-22.3°C 70% Calm Calm 2.0 mph3.2 kmh 30.46 in1031.5 mb 0.00 in0.0 mm 0.00 in/hr0.0 mm/hr 0.00 in0.0 mm
01:15 AM -1.5°F-18.6°C -8.9°F-22.7°C 70% Calm Calm -- 30.46 in1031.5 mb 0.00 in0.0 mm 0.00 in/hr0.0 mm/hr 0.00 in0.0 mm
01:30 AM -2.1°F-18.9°C -8.9°F-22.7°C 72% 1.0 mph W1.6 kmh W 1.0 mph1.6 kmh 30.47 in1031.8 mb 0.00 in0.0 mm 0.00 in/hr0.0 mm/hr 0.00 in0.0 mm
01:45 AM -2.9°F-19.4°C -9.4°F-23.0°C 73% Calm Calm 1.0 mph1.6 kmh 30.47 in1031.8 mb 0.00 in0.0 mm 0.00 in/hr0.0 mm/hr 0.00 in0.0 mm
02:00 AM -3.0°F-19.4°C -8.9°F-22.7°C 75% Calm Calm 1.0 mph1.6 kmh 30.48 in1032.2 mb 0.00 in0.0 mm 0.00 in/hr0.0 mm/hr 0.00 in0.0 mm
02:15 AM -2.8°F-19.3°C -8.7°F-22.6°C 75% Calm Calm -- 30.48 in1032.2 mb 0.00 in0.0 mm 0.00 in/hr0.0 mm/hr 0.00 in0.0 mm
02:30 AM -3.4°F-19.7°C -9.3°F-22.9°C 75% Calm Calm 1.0 mph1.6 kmh 30.48 in1032.2 mb 0.00 in0.0 mm 0.00 in/hr0.0 mm/hr 0.00 in0.0 mm
02:45 AM -4.0°F-20.0°C -9.6°F-23.1°C 76% Calm Calm 1.0 mph1.6 kmh 30.48 in1032.2 mb 0.00 in0.0 mm 0.00 in/hr0.0 mm/hr 0.00 in0.0 mm
03:00 AM -4.6°F-20.3°C -10.2°F-23.4°C 76% Calm Calm -- 30.48 in1032.2 mb 0.00 in0.0 mm 0.00 in/hr0.0 mm/hr 0.00 in0.0 mm
03:15 AM -5.1°F-20.6°C -10.2°F-23.4°C 78% Calm Calm -- 30.48 in1032.2 mb 0.00 in0.0 mm 0.00 in/hr0.0 mm/hr 0.00 in0.0 mm
03:30 AM -6.6°F-21.4°C -12.2°F-24.6°C 76% Calm Calm -- 30.48 in1032.2 mb 0.00 in0.0 mm 0.00 in/hr0.0 mm/hr 0.00 in0.0 mm
03:45 AM -7.2°F-21.8°C -12.2°F-24.6°C 78% Calm Calm -- 30.48 in1032.2 mb 0.00 in0.0 mm 0.00 in/hr0.0 mm/hr 0.00 in0.0 mm
04:00 AM -6.9°F-21.6°C -11.7°F-24.3°C 79% Calm Calm -- 30.49 in1032.5 mb 0.00 in0.0 mm 0.00 in/hr0.0 mm/hr 0.00 in0.0 mm
04:15 AM -6.6°F-21.4°C -11.4°F-24.1°C 79% Calm Calm -- 30.49 in1032.5 mb 0.00 in0.0 mm 0.00 in/hr0.0 mm/hr 0.00 in0.0 mm
04:30 AM -7.1°F-21.7°C -12.1°F-24.5°C 78% Calm Calm -- 30.50 in1032.8 mb 0.00 in0.0 mm 0.00 in/hr0.0 mm/hr 0.00 in0.0 mm
04:45 AM -6.7°F-21.5°C -11.2°F-24.0°C 80% Calm Calm -- 30.50 in1032.8 mb 0.00 in0.0 mm 0.00 in/hr0.0 mm/hr 0.00 in0.0 mm
05:00 AM -6.7°F-21.5°C -11.5°F-24.2°C 79% Calm Calm -- 30.51 in1033.2 mb 0.00 in0.0 mm 0.00 in/hr0.0 mm/hr 0.00 in0.0 mm
05:15 AM -6.5°F-21.4°C -11.0°F-23.9°C 80% Calm Calm -- 30.51 in1033.2 mb 0.00 in0.0 mm 0.00 in/hr0.0 mm/hr 0.00 in0.0 mm
05:30 AM -6.6°F-21.4°C -11.1°F-23.9°C 80% 2.0 mph W3.2 kmh W 3.0 mph4.8 kmh 30.51 in1033.2 mb 0.00 in0.0 mm 0.00 in/hr0.0 mm/hr 0.00 in0.0 mm
05:45 AM -7.0°F-21.7°C -11.3°F-24.1°C 81% 1.0 mph W1.6 kmh W 3.0 mph4.8 kmh 30.52 in1033.5 mb 0.00 in0.0 mm 0.00 in/hr0.0 mm/hr 0.00 in0.0 mm
06:00 AM -7.5°F-21.9°C -12.0°F-24.4°C 80% Calm Calm -- 30.53 in1033.9 mb 0.00 in0.0 mm 0.00 in/hr0.0 mm/hr 0.00 in0.0 mm
06:15 AM -7.2°F-21.8°C -11.5°F-24.2°C 81% Calm Calm 2.0 mph3.2 kmh 30.53 in1033.9 mb 0.00 in0.0 mm 0.00 in/hr0.0 mm/hr 0.00 in0.0 mm
06:30 AM -3.4°F-19.7°C -7.8°F-22.1°C 81% 6.0 mph E9.7 kmh E 8.0 mph12.9 kmh 30.53 in1033.9 mb 0.00 in0.0 mm 0.00 in/hr0.0 mm/hr 0.00 in0.0 mm
06:45 AM -4.0°F-20.0°C -8.4°F-22.4°C 81% 7.0 mph E11.3 kmh E 8.0 mph12.9 kmh 30.53 in1033.9 mb 0.00 in0.0 mm 0.00 in/hr0.0 mm/hr 0.00 in0.0 mm
07:00 AM -4.5°F-20.3°C -8.8°F-22.7°C 81% 5.0 mph E8.0 kmh E 6.0 mph9.7 kmh 30.52 in1033.5 mb 0.00 in0.0 mm 0.00 in/hr0.0 mm/hr 0.00 in0.0 mm
07:15 AM -5.1°F-20.6°C -9.2°F-22.9°C 82% 4.0 mph E6.4 kmh E 5.0 mph8.0 kmh 30.51 in1033.2 mb 0.00 in0.0 mm 0.00 in/hr0.0 mm/hr 0.00 in0.0 mm
07:30 AM -5.2°F-20.7°C -9.3°F-22.9°C 82% 5.0 mph E8.0 kmh E 6.0 mph9.7 kmh 30.52 in1033.5 mb 0.00 in0.0 mm 0.00 in/hr0.0 mm/hr 0.00 in0.0 mm
07:45 AM -5.0°F-20.6°C -8.8°F-22.7°C 83% 2.0 mph E3.2 kmh E 3.0 mph4.8 kmh 30.52 in1033.5 mb 0.00 in0.0 mm 0.00 in/hr0.0 mm/hr 0.00 in0.0 mm
08:00 AM -5.1°F-20.6°C -9.2°F-22.9°C 82% Calm Calm 5.0 mph8.0 kmh 30.53 in1033.9 mb 0.00 in0.0 mm 0.00 in/hr0.0 mm/hr 0.00 in0.0 mm
08:15 AM -4.8°F-20.4°C -9.6°F-23.1°C 79% Calm Calm -- 30.54 in1034.2 mb 0.00 in0.0 mm 0.00 in/hr0.0 mm/hr 0.00 in0.0 mm
08:30 AM -2.2°F-19.0°C -7.1°F-21.7°C 79% 2.0 mph WSW3.2 kmh WSW 4.0 mph6.4 kmh 30.55 in1034.5 mb 0.00 in0.0 mm 0.00 in/hr0.0 mm/hr 0.00 in0.0 mm
08:45 AM -0.3°F-17.9°C -5.2°F-20.7°C 79% 2.0 mph WSW3.2 kmh WSW 4.0 mph6.4 kmh 30.56 in1034.9 mb 0.00 in0.0 mm 0.00 in/hr0.0 mm/hr 0.00 in0.0 mm
09:00 AM 0.9°F-17.3°C -4.6°F-20.3°C 77% 4.0 mph WSW6.4 kmh WSW 6.0 mph9.7 kmh 30.56 in1034.9 mb 0.00 in0.0 mm 0.00 in/hr0.0 mm/hr 0.00 in0.0 mm
09:15 AM 2.1°F-16.6°C -4.0°F-20.0°C 75% 2.0 mph W3.2 kmh W 6.0 mph9.7 kmh 30.57 in1035.2 mb 0.00 in0.0 mm 0.00 in/hr0.0 mm/hr 0.00 in0.0 mm
09:30 AM 3.2°F-16.0°C -3.2°F-19.6°C 74% 5.0 mph WSW8.0 kmh WSW 6.0 mph9.7 kmh 30.57 in1035.2 mb 0.00 in0.0 mm 0.00 in/hr0.0 mm/hr 0.00 in0.0 mm
09:45 AM 4.1°F-15.5°C -2.6°F-19.2°C 73% 8.0 mph WSW12.9 kmh WSW 8.0 mph12.9 kmh 30.58 in1035.6 mb 0.00 in0.0 mm 0.00 in/hr0.0 mm/hr 0.00 in0.0 mm
10:00 AM 5.1°F-14.9°C -1.7°F-18.7°C 73% 8.0 mph WSW12.9 kmh WSW 9.0 mph14.5 kmh 30.58 in1035.6 mb 0.00 in0.0 mm 0.00 in/hr0.0 mm/hr 0.00 in0.0 mm
10:15 AM 5.5°F-14.7°C -1.0°F-18.3°C 74% 5.0 mph WSW8.0 kmh WSW 8.0 mph12.9 kmh 30.58 in1035.6 mb 0.00 in0.0 mm 0.00 in/hr0.0 mm/hr 0.00 in0.0 mm
10:30 AM 6.9°F-13.9°C 0.1°F-17.7°C 73% 6.0 mph WSW9.7 kmh WSW 12.0 mph19.3 kmh 30.58 in1035.6 mb 0.00 in0.0 mm 0.00 in/hr0.0 mm/hr 0.00 in0.0 mm
10:45 AM 8.1°F-13.3°C 0.7°F-17.4°C 71% 9.0 mph WSW14.5 kmh WSW 11.0 mph17.7 kmh 30.58 in1035.6 mb 0.00 in0.0 mm 0.00 in/hr0.0 mm/hr 0.00 in0.0 mm
11:00 AM 9.7°F-12.4°C 1.6°F-16.9°C 69% 7.0 mph NW11.3 kmh NW 10.0 mph16.1 kmh 30.58 in1035.6 mb 0.00 in0.0 mm 0.00 in/hr0.0 mm/hr 0.00 in0.0 mm
11:15 AM 10.6°F-11.9°C 2.5°F-16.4°C 69% 11.0 mph WSW17.7 kmh WSW 11.0 mph17.7 kmh 30.58 in1035.6 mb 0.00 in0.0 mm 0.00 in/hr0.0 mm/hr 0.00 in0.0 mm
11:30 AM 11.4°F-11.4°C 2.9°F-16.2°C 68% 6.0 mph WSW9.7 kmh WSW 10.0 mph16.1 kmh 30.58 in1035.6 mb 0.00 in0.0 mm 0.00 in/hr0.0 mm/hr 0.00 in0.0 mm
11:45 AM 11.7°F-11.3°C 3.5°F-15.8°C 69% 8.0 mph WSW12.9 kmh WSW 12.0 mph19.3 kmh 30.58 in1035.6 mb 0.00 in0.0 mm 0.00 in/hr0.0 mm/hr 0.00 in0.0 mm
12:00 PM 11.3°F-11.5°C 3.4°F-15.9°C 70% 7.0 mph WNW11.3 kmh WNW 15.0 mph24.1 kmh 30.59 in1035.9 mb 0.00 in0.0 mm 0.00 in/hr0.0 mm/hr 0.00 in0.0 mm
12:15 PM 11.3°F-11.5°C 3.1°F-16.1°C 69% 11.0 mph SW17.7 kmh SW 15.0 mph24.1 kmh 30.59 in1035.9 mb 0.00 in0.0 mm 0.00 in/hr0.0 mm/hr 0.00 in0.0 mm
12:30 PM 12.2°F-11.0°C 3.0°F-16.1°C 66% 10.0 mph WSW16.1 kmh WSW 14.0 mph22.5 kmh 30.59 in1035.9 mb 0.00 in0.0 mm 0.00 in/hr0.0 mm/hr 0.00 in0.0 mm
12:45 PM 13.1°F-10.5°C 3.6°F-15.8°C 65% 10.0 mph WSW16.1 kmh WSW 13.0 mph20.9 kmh 30.58 in1035.6 mb 0.00 in0.0 mm 0.00 in/hr0.0 mm/hr 0.00 in0.0 mm
01:00 PM 13.8°F-10.1°C 3.9°F-15.6°C 64% 10.0 mph WSW16.1 kmh WSW 14.0 mph22.5 kmh 30.58 in1035.6 mb 0.00 in0.0 mm 0.00 in/hr0.0 mm/hr 0.00 in0.0 mm
01:15 PM 14.2°F-9.9°C 3.9°F-15.6°C 63% 9.0 mph SW14.5 kmh SW 13.0 mph20.9 kmh 30.57 in1035.2 mb 0.00 in0.0 mm 0.00 in/hr0.0 mm/hr 0.00 in0.0 mm
01:30 PM 15.6°F-9.1°C 4.6°F-15.2°C 61% 7.0 mph WNW11.3 kmh WNW 10.0 mph16.1 kmh 30.57 in1035.2 mb 0.00 in0.0 mm 0.00 in/hr0.0 mm/hr 0.00 in0.0 mm
01:45 PM 15.6°F-9.1°C 4.9°F-15.1°C 62% 8.0 mph W12.9 kmh W 13.0 mph20.9 kmh 30.56 in1034.9 mb 0.00 in0.0 mm 0.00 in/hr0.0 mm/hr 0.00 in0.0 mm
02:00 PM 16.0°F-8.9°C 5.3°F-14.8°C 62% 8.0 mph WSW12.9 kmh WSW 10.0 mph16.1 kmh 30.56 in1034.9 mb 0.00 in0.0 mm 0.00 in/hr0.0 mm/hr 0.00 in0.0 mm
02:15 PM 13.7°F-10.2°C 7.3°F-13.7°C 75% 12.0 mph S19.3 kmh S 17.0 mph27.4 kmh 30.55 in1034.5 mb 0.00 in0.0 mm 0.00 in/hr0.0 mm/hr 0.00 in0.0 mm
02:30 PM 14.6°F-9.7°C 8.1°F-13.3°C 75% 10.0 mph SW16.1 kmh SW 13.0 mph20.9 kmh 30.56 in1034.9 mb 0.00 in0.0 mm 0.00 in/hr0.0 mm/hr 0.00 in0.0 mm
02:45 PM 14.6°F-9.7°C 8.7°F-12.9°C 77% 12.0 mph S19.3 kmh S 17.0 mph27.4 kmh 30.55 in1034.5 mb 0.00 in0.0 mm 0.00 in/hr0.0 mm/hr 0.00 in0.0 mm
03:00 PM 14.8°F-9.6°C 8.9°F-12.8°C 77% 12.0 mph S19.3 kmh S 20.0 mph32.2 kmh 30.55 in1034.5 mb 0.00 in0.0 mm 0.00 in/hr0.0 mm/hr 0.00 in0.0 mm
03:15 PM 15.7°F-9.1°C 9.5°F-12.5°C 76% 9.0 mph SW14.5 kmh SW 16.0 mph25.7 kmh 30.56 in1034.9 mb 0.00 in0.0 mm 0.00 in/hr0.0 mm/hr 0.00 in0.0 mm
03:30 PM 16.9°F-8.4°C 9.1°F-12.7°C 71% 13.0 mph S20.9 kmh S 14.0 mph22.5 kmh 30.56 in1034.9 mb 0.00 in0.0 mm 0.00 in/hr0.0 mm/hr 0.00 in0.0 mm
03:45 PM 17.9°F-7.8°C 8.8°F-12.9°C 67% 6.0 mph W9.7 kmh W 10.0 mph16.1 kmh 30.56 in1034.9 mb 0.00 in0.0 mm 0.00 in/hr0.0 mm/hr 0.00 in0.0 mm
04:00 PM 20.3°F-6.5°C 6.3°F-14.3°C 54% 10.0 mph WSW16.1 kmh WSW 10.0 mph16.1 kmh 30.56 in1034.9 mb 0.00 in0.0 mm 0.00 in/hr0.0 mm/hr 0.00 in0.0 mm
04:15 PM 19.7°F-6.8°C 5.8°F-14.6°C 54% 7.0 mph WNW11.3 kmh WNW 12.0 mph19.3 kmh 30.56 in1034.9 mb 0.00 in0.0 mm 0.00 in/hr0.0 mm/hr 0.00 in0.0 mm
04:30 PM 19.0°F-7.2°C 5.9°F-14.5°C 56% 7.0 mph NW11.3 kmh NW 11.0 mph17.7 kmh 30.56 in1034.9 mb 0.00 in0.0 mm 0.00 in/hr0.0 mm/hr 0.00 in0.0 mm
04:45 PM 19.3°F-7.1°C 5.8°F-14.6°C 55% 8.0 mph WNW12.9 kmh WNW 16.0 mph25.7 kmh 30.56 in1034.9 mb 0.00 in0.0 mm 0.00 in/hr0.0 mm/hr 0.00 in0.0 mm
05:00 PM 18.8°F-7.3°C 6.5°F-14.2°C 58% 5.0 mph SW8.0 kmh SW 7.0 mph11.3 kmh 30.56 in1034.9 mb 0.00 in0.0 mm 0.00 in/hr0.0 mm/hr 0.00 in0.0 mm
05:15 PM 17.9°F-7.8°C 6.7°F-14.1°C 61% 7.0 mph NNW11.3 kmh NNW 9.0 mph14.5 kmh 30.57 in1035.2 mb 0.00 in0.0 mm 0.00 in/hr0.0 mm/hr 0.00 in0.0 mm
05:30 PM 18.2°F-7.7°C 6.7°F-14.1°C 60% 2.0 mph WSW3.2 kmh WSW 8.0 mph12.9 kmh 30.57 in1035.2 mb 0.00 in0.0 mm 0.00 in/hr0.0 mm/hr 0.00 in0.0 mm
05:45 PM 16.4°F-8.7°C 6.0°F-14.4°C 63% 6.0 mph WSW9.7 kmh WSW 10.0 mph16.1 kmh 30.57 in1035.2 mb 0.00 in0.0 mm 0.00 in/hr0.0 mm/hr 0.00 in0.0 mm
06:00 PM 16.0°F-8.9°C 6.7°F-14.1°C 66% 10.0 mph SW16.1 kmh SW 14.0 mph22.5 kmh 30.57 in1035.2 mb 0.00 in0.0 mm 0.00 in/hr0.0 mm/hr 0.00 in0.0 mm
06:15 PM 15.5°F-9.2°C 6.5°F-14.2°C 67% 8.0 mph SW12.9 kmh SW 12.0 mph19.3 kmh 30.58 in1035.6 mb 0.00 in0.0 mm 0.00 in/hr0.0 mm/hr 0.00 in0.0 mm
06:30 PM 15.0°F-9.4°C 5.7°F-14.6°C 66% 10.0 mph SW16.1 kmh SW 14.0 mph22.5 kmh 30.58 in1035.6 mb 0.00 in0.0 mm 0.00 in/hr0.0 mm/hr 0.00 in0.0 mm
06:45 PM 13.6°F-10.2°C 5.0°F-15.0°C 68% 7.0 mph SW11.3 kmh SW 8.0 mph12.9 kmh 30.58 in1035.6 mb 0.00 in0.0 mm 0.00 in/hr0.0 mm/hr 0.00 in0.0 mm
07:00 PM 12.5°F-10.8°C 4.9°F-15.1°C 71% 4.0 mph WSW6.4 kmh WSW 6.0 mph9.7 kmh 30.59 in1035.9 mb 0.00 in0.0 mm 0.00 in/hr0.0 mm/hr 0.00 in0.0 mm
07:15 PM 12.5°F-10.8°C 5.2°F-14.9°C 72% 3.0 mph WSW4.8 kmh WSW 4.0 mph6.4 kmh 30.59 in1035.9 mb 0.00 in0.0 mm 0.00 in/hr0.0 mm/hr 0.00 in0.0 mm
07:30 PM 12.1°F-11.1°C 5.1°F-14.9°C 73% 2.0 mph WSW3.2 kmh WSW 4.0 mph6.4 kmh 30.60 in1036.2 mb 0.00 in0.0 mm 0.00 in/hr0.0 mm/hr 0.00 in0.0 mm
07:45 PM 11.9°F-11.2°C 5.5°F-14.7°C 75% 2.0 mph SW3.2 kmh SW 4.0 mph6.4 kmh 30.61 in1036.6 mb 0.00 in0.0 mm 0.00 in/hr0.0 mm/hr 0.00 in0.0 mm
08:00 PM 10.5°F-11.9°C 3.6°F-15.8°C 73% 5.0 mph SW8.0 kmh SW 7.0 mph11.3 kmh 30.61 in1036.6 mb 0.00 in0.0 mm 0.00 in/hr0.0 mm/hr 0.00 in0.0 mm
08:15 PM 9.7°F-12.4°C 3.4°F-15.9°C 75% 3.0 mph SW4.8 kmh SW 5.0 mph8.0 kmh 30.62 in1036.9 mb 0.00 in0.0 mm 0.00 in/hr0.0 mm/hr 0.00 in0.0 mm
08:30 PM 9.7°F-12.4°C 3.4°F-15.9°C 75% 5.0 mph SW8.0 kmh SW 6.0 mph9.7 kmh 30.62 in1036.9 mb 0.00 in0.0 mm 0.00 in/hr0.0 mm/hr 0.00 in0.0 mm
08:45 PM 10.0°F-12.2°C 4.0°F-15.6°C 76% 5.0 mph SW8.0 kmh SW 7.0 mph11.3 kmh 30.63 in1037.3 mb 0.00 in0.0 mm 0.00 in/hr0.0 mm/hr 0.00 in0.0 mm
09:00 PM 9.6°F-12.4°C 3.6°F-15.8°C 76% 5.0 mph SW8.0 kmh SW 6.0 mph9.7 kmh 30.63 in1037.3 mb 0.00 in0.0 mm 0.00 in/hr0.0 mm/hr 0.00 in0.0 mm
09:15 PM 8.9°F-12.8°C 3.2°F-16.0°C 77% 3.0 mph SW4.8 kmh SW 5.0 mph8.0 kmh 30.64 in1037.6 mb 0.00 in0.0 mm 0.00 in/hr0.0 mm/hr 0.00 in0.0 mm
09:30 PM 8.3°F-13.2°C 2.9°F-16.2°C 78% 4.0 mph SW6.4 kmh SW 6.0 mph9.7 kmh 30.65 in1037.9 mb 0.00 in0.0 mm 0.00 in/hr0.0 mm/hr 0.00 in0.0 mm
09:45 PM 9.2°F-12.7°C 3.7°F-15.7°C 78% 3.0 mph WSW4.8 kmh WSW 4.0 mph6.4 kmh 30.65 in1037.9 mb 0.00 in0.0 mm 0.00 in/hr0.0 mm/hr 0.00 in0.0 mm
10:00 PM 9.7°F-12.4°C 4.0°F-15.6°C 77% 3.0 mph WSW4.8 kmh WSW 4.0 mph6.4 kmh 30.66 in1038.3 mb 0.00 in0.0 mm 0.00 in/hr0.0 mm/hr 0.00 in0.0 mm
10:15 PM 7.8°F-13.4°C 1.3°F-17.1°C 74% 3.0 mph WSW4.8 kmh WSW 4.0 mph6.4 kmh 30.66 in1038.3 mb 0.00 in0.0 mm 0.00 in/hr0.0 mm/hr 0.00 in0.0 mm
10:30 PM 7.3°F-13.7°C 1.1°F-17.2°C 75% 5.0 mph WSW8.0 kmh WSW 5.0 mph8.0 kmh 30.67 in1038.6 mb 0.00 in0.0 mm 0.00 in/hr0.0 mm/hr 0.00 in0.0 mm
10:45 PM 7.2°F-13.8°C 1.2°F-17.1°C 76% 4.0 mph WSW6.4 kmh WSW 5.0 mph8.0 kmh 30.67 in1038.6 mb 0.00 in0.0 mm 0.00 in/hr0.0 mm/hr 0.00 in0.0 mm
11:00 PM 7.2°F-13.8°C 1.2°F-17.1°C 76% 3.0 mph WSW4.8 kmh WSW 4.0 mph6.4 kmh 30.67 in1038.6 mb 0.00 in0.0 mm 0.00 in/hr0.0 mm/hr 0.00 in0.0 mm
11:15 PM 7.8°F-13.4°C 1.5°F-16.9°C 75% 3.0 mph WSW4.8 kmh WSW 5.0 mph8.0 kmh 30.67 in1038.6 mb 0.00 in0.0 mm 0.00 in/hr0.0 mm/hr 0.00 in0.0 mm
11:30 PM 6.9°F-13.9°C 0.7°F-17.4°C 75% 2.0 mph WSW3.2 kmh WSW 3.0 mph4.8 kmh 30.67 in1038.6 mb 0.00 in0.0 mm 0.00 in/hr0.0 mm/hr 0.00 in0.0 mm
11:45 PM 7.0°F-13.9°C 0.8°F-17.3°C 75% 1.0 mph WSW1.6 kmh WSW 2.0 mph3.2 kmh 30.68 in1038.9 mb 0.00 in0.0 mm 0.00 in/hr0.0 mm/hr 0.00 in0.0 mm